Time;durP1;ratioP1;P1;durP2;ratioP2;P2;SDS_P1;SDS_P2;PMS_P1;PMS_P2;Temp;Humidity;BMP_temperature;BMP_pressure;BME280_temperature;BME280_humidity;BME280_pressure;Samples;Min_cycle;Max_cycle;Signal;HPM_P1;HPM_P2
2021/12/14 00:00:37;;;;;;;1.30;1.20;;;;;;;7.56;100.00;101799.31;5070570;28;20261;-73
2021/12/14 00:03:04;;;;;;;1.23;1.13;;;;;;;7.55;100.00;101797.69;5070104;28;20166;-74
2021/12/14 00:05:31;;;;;;;1.23;1.13;;;;;;;7.57;100.00;101784.63;5069775;28;20551;-74
2021/12/14 00:08:00;;;;;;;1.40;1.30;;;;;;;7.56;100.00;101790.34;5069950;28;20335;-73
2021/12/14 00:13:14;;;;;;;1.77;1.40;;;;;;;7.52;100.00;101790.00;5070387;28;20166;-74
2021/12/14 00:15:39;;;;;;;1.10;1.00;;;;;;;7.51;100.00;101787.56;5069780;28;20189;-73
2021/12/14 00:18:08;;;;;;;0.70;0.70;;;;;;;7.51;100.00;101787.56;5070291;28;20640;-74
2021/12/14 00:20:40;;;;;;;0.67;0.67;;;;;;;7.51;100.00;101782.13;5069847;28;20239;-74
2021/12/14 00:25:36;;;;;;;1.30;1.20;;;;;;;7.51;100.00;101779.41;5070126;28;20175;-73
2021/12/14 00:28:16;;;;;;;2.23;1.63;;;;;;;7.48;100.00;101780.75;5068444;28;20648;-74
2021/12/14 00:30:43;;;;;;;1.20;1.10;;;;;;;7.49;100.00;101790.53;5070323;28;20197;-73
2021/12/14 00:33:12;;;;;;;1.53;1.20;;;;;;;7.49;100.00;101789.72;5069684;28;20171;-73
2021/12/14 00:35:39;;;;;;;0.80;0.80;;;;;;;7.49;100.00;101787.81;5070659;28;20175;-73
2021/12/14 00:38:05;;;;;;;1.50;1.20;;;;;;;7.49;100.00;101776.94;5073765;28;20179;-74
2021/12/14 00:40:36;;;;;;;1.10;1.00;;;;;;;7.47;100.00;101782.63;5073464;28;20532;-74
2021/12/14 00:43:02;;;;;;;1.27;1.17;;;;;;;7.47;100.00;101781.81;5073392;28;20421;-74
2021/12/14 00:45:30;;;;;;;1.40;1.30;;;;;;;7.46;100.00;101772.84;5073043;28;20224;-74
2021/12/14 00:47:57;;;;;;;1.30;1.20;;;;;;;7.44;100.00;101787.78;5073388;28;20194;-74
2021/12/14 00:50:26;;;;;;;0.80;0.80;;;;;;;7.44;100.00;101788.59;5073286;28;20253;-74
2021/12/14 00:52:51;;;;;;;0.67;0.67;;;;;;;7.44;100.00;101776.91;5073250;28;20179;-74
2021/12/14 00:55:24;;;;;;;1.87;1.77;;;;;;;7.43;100.00;101788.84;5072851;28;20593;-74
2021/12/14 00:57:50;;;;;;;0.67;0.63;;;;;;;7.41;100.00;101782.84;5073103;28;20257;-74
2021/12/14 01:00:22;;;;;;;0.90;0.90;;;;;;;7.40;100.00;101783.94;5073427;28;20178;-74
2021/12/14 01:02:47;;;;;;;1.20;1.10;;;;;;;7.41;100.00;101782.84;5071824;28;20182;-74
2021/12/14 01:05:20;;;;;;;1.87;1.73;;;;;;;7.39;100.00;101783.13;5071241;28;20307;-74
2021/12/14 01:07:47;;;;;;;0.87;0.83;;;;;;;7.38;100.00;101778.75;5073184;28;20198;-73
2021/12/14 01:10:30;;;;;;;1.40;1.30;;;;;;;7.37;100.00;101782.53;5072873;28;20191;-73
2021/12/14 01:13:02;;;;;;;3.70;2.13;;;;;;;7.39;100.00;101785.03;5073117;28;20250;-74
2021/12/14 01:18:45;;;;;;;1.87;1.70;;;;;;;7.40;100.00;101773.88;5072673;28;20212;-74
2021/12/14 01:24:00;;;;;;;3.10;2.40;;;;;;;7.39;100.00;101774.97;5070028;28;20186;-74
2021/12/14 01:26:28;;;;;;;2.03;1.43;;;;;;;7.37;100.00;101774.38;5070042;28;20182;-73
2021/12/14 01:28:54;;;;;;;2.27;2.07;;;;;;;7.39;100.00;101785.84;5072227;28;20216;-74
2021/12/14 01:31:30;;;;;;;1.97;1.87;;;;;;;7.36;100.00;101791.75;5071991;28;20631;-74
2021/12/14 01:34:00;;;;;;;2.07;1.87;;;;;;;7.33;100.00;101784.13;5072381;28;20167;-74
2021/12/14 01:36:36;;;;;;;1.33;1.23;;;;;;;7.32;100.00;101785.22;5072259;28;20583;-74
2021/12/14 01:42:00;;;;;;;2.37;2.07;;;;;;;7.33;100.00;101788.75;5072006;28;20645;-73
2021/12/14 01:44:30;;;;;;;2.63;2.43;;;;;;;7.30;100.00;101792.81;5072284;28;20728;-73
2021/12/14 01:47:08;;;;;;;2.40;2.17;;;;;;;7.29;100.00;101801.22;5071579;28;20650;-74
2021/12/14 01:49:34;;;;;;;2.27;2.07;;;;;;;7.28;100.00;101805.84;5072295;28;20173;-74
2021/12/14 01:52:06;;;;;;;1.37;1.27;;;;;;;7.26;100.00;101816.16;5072000;28;20269;-74
2021/12/14 01:54:37;;;;;;;1.90;1.70;;;;;;;7.25;100.00;101808.25;5070707;28;20179;-72
2021/12/14 01:57:07;;;;;;;1.70;1.60;;;;;;;7.25;100.00;101808.25;5070468;28;20171;-74
2021/12/14 01:59:37;;;;;;;1.87;1.50;;;;;;;7.23;100.00;101800.31;5072005;28;20649;-74
2021/12/14 02:02:17;;;;;;;2.90;2.60;;;;;;;7.26;100.00;101786.25;5072066;28;20235;-74
2021/12/14 02:04:44;;;;;;;2.73;2.43;;;;;;;7.26;100.00;101769.94;5071895;28;20202;-73
2021/12/14 02:07:12;;;;;;;2.97;2.53;;;;;;;7.27;100.00;101770.75;5071919;28;20233;-73
2021/12/14 02:09:38;;;;;;;2.67;2.47;;;;;;;7.28;100.00;101758.81;5071690;28;20247;-74
2021/12/14 02:12:15;;;;;;;4.23;2.97;;;;;;;7.27;100.00;101749.84;5071646;28;20695;-75
2021/12/14 02:14:40;;;;;;;3.90;2.90;;;;;;;7.27;100.00;101741.69;5071509;28;20198;-74
2021/12/14 02:17:11;;;;;;;3.43;3.03;;;;;;;7.29;100.00;101747.66;5071589;28;20225;-74
2021/12/14 02:19:37;;;;;;;2.70;2.17;;;;;;;7.28;100.00;101745.22;5071669;28;20163;-73
2021/12/14 02:22:06;;;;;;;2.40;2.13;;;;;;;7.25;100.00;101746.56;5071881;28;20171;-73
2021/12/14 02:24:33;;;;;;;2.83;2.37;;;;;;;7.24;100.00;101744.91;5071425;28;20175;-73
2021/12/14 02:26:59;;;;;;;2.80;2.60;;;;;;;7.23;100.00;101737.81;5071406;28;20205;-74
2021/12/14 02:29:34;;;;;;;3.20;2.90;;;;;;;7.24;100.00;101734.03;5071374;28;20202;-74
2021/12/14 02:32:06;;;;;;;2.63;2.43;;;;;;;7.25;100.00;101735.69;5071426;28;20645;-74
2021/12/14 02:34:38;;;;;;;4.57;2.60;;;;;;;7.27;100.00;101735.41;5071489;28;20171;-73
2021/12/14 02:37:03;;;;;;;3.30;3.00;;;;;;;7.23;100.00;101717.97;5071179;28;20213;-73
2021/12/14 02:42:15;;;;;;;2.60;2.23;;;;;;;7.27;100.00;101719.13;5070994;28;20182;-74
2021/12/14 02:44:44;;;;;;;3.17;2.87;;;;;;;7.26;100.00;101710.13;5071094;28;20178;-73
2021/12/14 02:47:15;;;;;;;3.90;3.40;;;;;;;7.22;100.00;101703.56;5071116;28;20179;-73
2021/12/14 02:49:41;;;;;;;3.03;2.60;;;;;;;7.20;100.00;101699.47;5071202;28;20250;-74
2021/12/14 02:52:10;;;;;;;4.23;3.83;;;;;;;7.18;100.00;101697.00;5069798;28;20173;-73
2021/12/14 02:54:44;;;;;;;2.93;2.63;;;;;;;7.19;100.00;101682.34;5070919;28;20215;-74
2021/12/14 02:57:24;;;;;;;3.00;2.57;;;;;;;7.19;100.00;101674.19;5070858;28;20232;-74
2021/12/14 02:59:53;;;;;;;3.53;2.93;;;;;;;7.21;100.00;101685.59;5071014;28;20312;-74
2021/12/14 03:02:26;;;;;;;2.77;2.27;;;;;;;7.19;100.00;101670.66;5070869;28;20171;-74
2021/12/14 03:04:58;;;;;;;2.07;1.87;;;;;;;7.18;100.00;101663.56;5070749;28;20587;-73
2021/12/14 03:07:27;;;;;;;3.37;3.07;;;;;;;7.18;100.00;101658.97;5070621;28;20186;-73
2021/12/14 03:10:06;;;;;;;3.13;2.90;;;;;;;7.18;100.00;101660.84;5070831;28;20518;-74
2021/12/14 03:12:35;;;;;;;2.90;2.70;;;;;;;7.19;100.00;101652.44;5070806;28;20515;-74
2021/12/14 03:15:15;;;;;;;3.07;2.77;;;;;;;7.19;100.00;101648.91;5070324;28;20205;-73
2021/12/14 03:17:43;;;;;;;4.57;2.93;;;;;;;7.20;100.00;101639.66;5070786;28;20584;-74
2021/12/14 03:20:31;;;;;;;2.73;2.53;;;;;;;7.20;100.00;101642.38;5070875;28;20202;-74
2021/12/14 03:23:23;;;;;;;2.70;2.50;;;;;;;7.19;100.00;101627.97;5070355;28;20195;-74
2021/12/14 03:25:53;;;;;;;2.20;1.90;;;;;;;7.15;100.00;101627.69;5070765;28;20159;-74
2021/12/14 03:28:20;;;;;;;3.50;2.40;;;;;;;7.19;100.00;101640.75;5070608;28;20602;-74
2021/12/14 03:30:46;;;;;;;3.07;2.70;;;;;;;7.20;100.00;101634.22;5070911;28;20232;-74
2021/12/14 03:33:23;;;;;;;3.30;2.90;;;;;;;7.20;100.00;101631.50;5070720;28;20166;-74
2021/12/14 03:35:51;;;;;;;5.70;2.67;;;;;;;7.20;100.00;101623.38;5070357;28;20162;-74
2021/12/14 03:38:21;;;;;;;2.27;2.07;;;;;;;7.23;100.00;101633.72;5070704;28;20178;-74
2021/12/14 03:41:19;;;;;;;3.17;2.83;;;;;;;7.25;100.00;101628.84;5070643;28;20217;-73
2021/12/14 03:44:13;;;;;;;2.40;2.20;;;;;;;7.24;100.00;101641.63;5069559;28;20277;-74
2021/12/14 03:46:44;;;;;;;3.13;2.20;;;;;;;7.24;100.00;101638.09;5061944;28;20202;-74
2021/12/14 03:49:10;;;;;;;1.97;1.80;;;;;;;7.21;100.00;101642.13;5069595;28;20225;-74
2021/12/14 03:51:35;;;;;;;2.20;1.97;;;;;;;7.22;100.00;101646.47;5070191;28;20205;-74
2021/12/14 03:54:01;;;;;;;2.60;2.27;;;;;;;7.20;100.00;101645.91;5070034;28;20182;-74
2021/12/14 03:56:27;;;;;;;2.73;2.40;;;;;;;7.20;100.00;101648.63;5071603;28;20171;-74
2021/12/14 03:58:53;;;;;;;2.60;2.40;;;;;;;7.21;100.00;101653.00;5078549;28;20202;-74
2021/12/14 04:01:23;;;;;;;2.30;2.10;;;;;;;7.21;100.00;101668.47;5071957;28;20217;-73
2021/12/14 04:03:54;;;;;;;2.20;2.10;;;;;;;7.21;100.00;101668.47;5070047;28;20577;-75
2021/12/14 04:06:21;;;;;;;2.80;2.10;;;;;;;7.21;100.00;101673.91;5069751;28;20171;-75
2021/12/14 04:08:48;;;;;;;1.13;0.50;;;;;;;7.19;100.00;101676.91;5070338;28;20210;-73
2021/12/14 04:11:14;;;;;;;5.47;1.47;;;;;;;7.18;100.00;101679.88;5072448;28;20167;-74
2021/12/14 04:13:44;;;;;;;5.77;2.30;;;;;;;7.17;100.00;101684.50;5073217;28;20228;-74
2021/12/14 04:16:14;;;;;;;2.30;2.10;;;;;;;7.15;100.00;101682.03;5074257;28;20178;-74
2021/12/14 04:18:39;;;;;;;1.57;1.27;;;;;;;7.15;100.00;101682.03;5073996;28;20193;-74
2021/12/14 04:21:05;;;;;;;1.60;1.40;;;;;;;7.12;100.00;101682.56;5073933;28;20178;-74
2021/12/14 04:23:40;;;;;;;3.33;3.03;;;;;;;7.11;100.00;101678.22;5073865;28;20642;-74
2021/12/14 04:26:08;;;;;;;3.23;3.03;;;;;;;7.09;100.00;101685.81;5073591;28;20227;-74
2021/12/14 04:28:41;;;;;;;2.23;2.10;;;;;;;7.11;100.00;101689.06;5073688;28;20233;-74
2021/12/14 04:31:06;;;;;;;1.40;1.30;;;;;;;7.08;100.00;101680.59;5073848;28;20178;-73
2021/12/14 04:33:36;;;;;;;3.20;2.90;;;;;;;7.07;100.00;101678.97;5073797;28;20175;-73
2021/12/14 04:36:08;;;;;;;3.00;2.70;;;;;;;7.05;100.00;101675.69;5073528;28;20261;-73
2021/12/14 04:38:42;;;;;;;2.87;2.53;;;;;;;7.04;100.00;101680.28;5073692;28;20291;-74
2021/12/14 04:52:01;;;;;;;2.30;2.17;;;;;;;7.02;100.00;101654.47;5073227;28;20224;-73
2021/12/14 04:54:31;;;;;;;2.43;2.23;;;;;;;7.02;100.00;101649.84;5073214;28;20257;-73
2021/12/14 04:56:58;;;;;;;1.23;1.13;;;;;;;7.02;100.00;101641.69;5073127;28;20170;-73
2021/12/14 04:59:27;;;;;;;1.87;1.77;;;;;;;7.02;100.00;101647.13;5073308;28;20200;-74
2021/12/14 05:02:00;;;;;;;2.73;2.10;;;;;;;7.04;100.00;101650.41;5073141;28;20224;-74
2021/12/14 05:04:26;;;;;;;2.60;2.10;;;;;;;7.06;100.00;101645.53;5072981;28;20681;-74
2021/12/14 05:07:02;;;;;;;1.83;1.73;;;;;;;7.06;100.00;101645.53;5073135;28;20205;-74
2021/12/14 05:09:32;;;;;;;4.60;1.67;;;;;;;7.06;100.00;101647.44;5072776;28;20206;-74
2021/12/14 05:12:05;;;;;;;2.77;2.47;;;;;;;7.08;100.00;101648.00;5072829;28;20261;-74
2021/12/14 05:14:31;;;;;;;1.83;1.73;;;;;;;7.08;100.00;101629.78;5072785;28;20164;-75
2021/12/14 05:17:04;;;;;;;2.63;2.43;;;;;;;7.10;100.00;101632.28;5070279;28;20190;-73
2021/12/14 05:19:32;;;;;;;2.57;2.37;;;;;;;7.12;100.00;101635.53;5071904;28;20171;-74
2021/12/14 05:22:03;;;;;;;2.63;2.43;;;;;;;7.12;100.00;101633.66;5071778;28;20223;-74
2021/12/14 05:24:30;;;;;;;2.47;2.27;;;;;;;7.12;100.00;101635.53;5072836;28;20266;-74
2021/12/14 05:27:02;;;;;;;3.27;2.97;;;;;;;7.09;100.00;101645.03;5072970;28;20184;-74
2021/12/14 05:29:29;;;;;;;2.70;1.60;;;;;;;7.07;100.00;101649.88;5072829;28;20205;-74
2021/12/14 05:31:58;;;;;;;2.50;2.30;;;;;;;7.08;100.00;101640.66;5072799;28;20574;-73
2021/12/14 05:34:25;;;;;;;2.67;2.20;;;;;;;7.07;100.00;101636.31;5072522;28;20189;-73
2021/12/14 05:36:51;;;;;;;1.70;1.60;;;;;;;7.06;100.00;101644.72;5072550;28;20175;-73
2021/12/14 05:44:24;;;;;;;4.73;2.70;;;;;;;7.05;100.00;101651.22;5072728;28;20657;-74
2021/12/14 05:46:53;;;;;;;4.27;3.87;;;;;;;7.02;100.00;101663.44;5052353;28;20171;-74
2021/12/14 05:49:23;;;;;;;1.70;1.60;;;;;;;6.97;100.00;101655.25;5052510;28;20229;-73
2021/12/14 05:51:51;;;;;;;2.20;2.10;;;;;;;6.93;100.00;101648.66;5050974;28;20573;-74
2021/12/14 05:54:22;;;;;;;2.03;1.93;;;;;;;6.90;100.00;101646.47;5052386;28;20179;-74
2021/12/14 05:56:49;;;;;;;2.70;2.43;;;;;;;6.88;100.00;101647.81;5052271;28;20182;-74
2021/12/14 05:59:23;;;;;;;2.70;2.47;;;;;;;6.85;100.00;101641.00;5052168;28;20203;-73
2021/12/14 06:01:50;;;;;;;1.87;1.57;;;;;;;6.84;100.00;101639.38;5052200;28;20179;-74
2021/12/14 06:04:17;;;;;;;2.30;2.10;;;;;;;6.82;100.00;101638.81;5051950;28;20516;-73
2021/12/14 06:06:49;;;;;;;1.77;1.60;;;;;;;6.83;100.00;101635.00;5051513;28;20183;-74
2021/12/14 06:09:27;;;;;;;3.00;2.80;;;;;;;6.85;100.00;101632.84;5051595;28;20211;-73
2021/12/14 06:11:57;;;;;;;3.53;2.93;;;;;;;6.86;100.00;101629.88;5051912;28;20630;-74
2021/12/14 06:14:25;;;;;;;3.87;3.07;;;;;;;6.88;100.00;101631.50;5051891;28;20203;-74
2021/12/14 06:16:54;;;;;;;2.53;2.20;;;;;;;6.86;100.00;101637.22;5051462;28;20663;-74
2021/12/14 06:19:22;;;;;;;2.70;2.30;;;;;;;6.88;100.00;101631.50;5051963;28;20171;-73
2021/12/14 06:21:53;;;;;;;1.90;1.80;;;;;;;6.88;100.00;101629.63;5051545;28;20236;-74
2021/12/14 06:24:20;;;;;;;1.33;1.17;;;;;;;6.89;100.00;101620.38;5051504;28;20171;-74
2021/12/14 06:26:49;;;;;;;2.60;2.40;;;;;;;6.92;100.00;101613.59;5051106;28;20179;-74
2021/12/14 06:29:20;;;;;;;1.40;1.23;;;;;;;6.91;100.00;101623.66;5051243;28;20227;-73
2021/12/14 06:31:46;;;;;;;2.40;1.27;;;;;;;6.91;100.00;101612.78;5051327;28;20207;-74
2021/12/14 06:34:22;;;;;;;0.80;0.80;;;;;;;6.91;100.00;101599.22;5050985;28;20217;-74
2021/12/14 06:36:48;;;;;;;1.27;1.17;;;;;;;6.93;100.00;101602.47;5051560;28;20582;-74
2021/12/14 06:39:15;;;;;;;2.03;1.83;;;;;;;6.93;100.00;101602.47;5051317;28;20183;-73
2021/12/14 06:41:41;;;;;;;1.77;1.63;;;;;;;6.95;100.00;101604.97;5050708;28;20183;-73
2021/12/14 06:44:06;;;;;;;2.47;2.20;;;;;;;6.95;100.00;101608.50;5051008;28;20180;-74
2021/12/14 06:46:35;;;;;;;4.10;3.70;;;;;;;6.97;100.00;101608.25;5050876;28;20843;-74
2021/12/14 06:49:07;;;;;;;3.50;2.60;;;;;;;6.98;100.00;101624.28;5050981;28;20206;-76
2021/12/14 06:51:36;;;;;;;2.50;2.00;;;;;;;7.00;100.00;101608.53;5050861;28;20175;-76
2021/12/14 06:54:07;;;;;;;3.63;3.33;;;;;;;7.01;100.00;101614.78;5055467;28;20182;-74
2021/12/14 06:56:34;;;;;;;1.73;1.57;;;;;;;7.01;100.00;101614.78;5069773;28;20178;-73
2021/12/14 06:59:12;;;;;;;2.60;2.33;;;;;;;7.02;100.00;101619.16;5070893;28;20207;-71
2021/12/14 07:01:54;;;;;;;0.40;0.40;;;;;;;7.03;100.00;101628.94;5071104;28;20626;-71
2021/12/14 07:04:23;;;;;;;2.53;2.33;;;;;;;7.00;100.00;101638.44;5070901;28;20198;-71
2021/12/14 07:06:56;;;;;;;2.90;2.40;;;;;;;7.01;100.00;101640.06;5070811;28;20178;-70
2021/12/14 07:09:30;;;;;;;3.33;3.03;;;;;;;7.00;100.00;101652.00;5069659;28;20554;-71
2021/12/14 07:12:00;;;;;;;2.03;1.93;;;;;;;6.99;100.00;101644.13;5070902;28;20193;-71
2021/12/14 07:14:28;;;;;;;1.73;1.60;;;;;;;6.92;100.00;101646.22;5070777;28;20167;-71
2021/12/14 07:16:56;;;;;;;2.17;1.90;;;;;;;6.90;100.00;101646.47;5070448;28;20804;-71
2021/12/14 07:19:42;;;;;;;3.10;1.73;;;;;;;6.86;100.00;101650.78;5070700;28;20526;-71
2021/12/14 07:22:33;;;;;;;2.00;1.87;;;;;;;6.85;100.00;101663.56;5070650;28;20192;-71
2021/12/14 07:25:13;;;;;;;1.57;1.47;;;;;;;6.85;100.00;101670.88;5069133;28;20202;-71
2021/12/14 07:27:40;;;;;;;1.60;1.50;;;;;;;6.81;100.00;101665.16;5070848;28;20178;-73
2021/12/14 07:30:14;;;;;;;2.00;1.83;;;;;;;6.81;100.00;101669.75;5070762;28;20375;-72
2021/12/14 07:32:45;;;;;;;0.83;0.80;;;;;;;6.82;100.00;101679.53;5070695;28;20171;-72
2021/12/14 07:35:19;;;;;;;2.43;2.23;;;;;;;6.81;100.00;101694.22;5070590;28;20175;-71
2021/12/14 07:37:45;;;;;;;4.47;3.43;;;;;;;6.78;100.00;101692.78;5070542;28;20629;-72
2021/12/14 07:40:11;;;;;;;1.67;1.57;;;;;;;6.77;100.00;101693.88;5070579;28;20375;-72
2021/12/14 07:42:37;;;;;;;2.17;1.80;;;;;;;6.76;100.00;101696.84;5070396;28;20180;-72
2021/12/14 07:45:04;;;;;;;1.37;1.20;;;;;;;6.75;100.00;101703.34;5069618;28;20293;-72
2021/12/14 07:47:29;;;;;;;3.73;2.97;;;;;;;6.74;100.00;101707.16;5070305;28;20201;-72
2021/12/14 07:49:55;;;;;;;1.40;1.30;;;;;;;6.73;100.00;101719.09;5070223;28;20650;-73
2021/12/14 07:52:37;;;;;;;2.67;2.47;;;;;;;6.72;100.00;101709.31;5070641;28;20386;-73
2021/12/14 07:55:15;;;;;;;3.33;3.00;;;;;;;6.70;100.00;101715.00;5068813;28;20672;-75
2021/12/14 07:57:40;;;;;;;2.27;2.07;;;;;;;6.71;100.00;101718.53;5070404;28;20213;-73
2021/12/14 08:00:17;;;;;;;2.97;1.83;;;;;;;6.70;100.00;101712.28;5070434;28;20202;-73
2021/12/14 08:02:48;;;;;;;1.90;1.53;;;;;;;6.69;100.00;101697.06;5070418;28;20184;-73
2021/12/14 08:05:42;;;;;;;3.80;3.30;;;;;;;6.69;100.00;101694.34;5070106;28;20190;-73
2021/12/14 08:08:16;;;;;;;3.73;3.27;;;;;;;6.71;100.00;101696.81;5066046;28;20221;-71
2021/12/14 08:11:08;;;;;;;4.10;3.80;;;;;;;6.73;100.00;101689.22;5070569;28;20202;-71
2021/12/14 08:13:43;;;;;;;4.27;3.63;;;;;;;6.75;100.00;101700.63;5069854;28;20174;-72
2021/12/14 08:16:09;;;;;;;5.07;4.53;;;;;;;6.78;100.00;101714.53;5069776;28;20178;-72
2021/12/14 08:18:37;;;;;;;7.77;4.83;;;;;;;6.81;100.00;101710.50;5069659;28;20653;-72
2021/12/14 08:21:19;;;;;;;3.70;3.40;;;;;;;6.85;100.00;101719.78;5069914;28;20187;-72
2021/12/14 08:23:56;;;;;;;3.03;2.83;;;;;;;6.83;100.00;101717.31;5070145;28;20638;-73
2021/12/14 08:26:29;;;;;;;5.00;4.43;;;;;;;6.80;100.00;101723.25;5070040;28;20350;-71
2021/12/14 08:29:05;;;;;;;5.30;3.93;;;;;;;6.77;100.00;101723.75;5070343;28;20194;-74
2021/12/14 08:31:44;;;;;;;5.27;4.77;;;;;;;6.80;100.00;101741.47;5069956;28;20186;-74
2021/12/14 08:34:13;;;;;;;4.87;4.40;;;;;;;6.82;100.00;101742.03;5069877;28;20170;-74
2021/12/14 08:36:49;;;;;;;5.90;4.63;;;;;;;6.84;100.00;101734.44;5069761;28;20178;-74
2021/12/14 08:39:23;;;;;;;3.17;2.87;;;;;;;6.85;100.00;101731.47;5069976;28;20170;-74
2021/12/14 08:41:55;;;;;;;1.87;1.77;;;;;;;6.83;100.00;101749.91;5069714;28;20258;-74
2021/12/14 08:44:35;;;;;;;5.03;4.53;;;;;;;6.82;100.00;101737.41;5069897;28;20179;-74
2021/12/14 08:47:01;;;;;;;2.70;2.50;;;;;;;6.81;100.00;101741.19;5069982;28;20642;-74
2021/12/14 08:49:27;;;;;;;2.47;2.27;;;;;;;6.80;100.00;101734.13;5069847;28;20218;-74
2021/12/14 08:51:52;;;;;;;5.77;4.70;;;;;;;6.81;100.00;101735.78;5069767;28;20539;-74
2021/12/14 08:54:22;;;;;;;5.00;4.40;;;;;;;6.84;100.00;101737.16;5069659;28;20245;-74
2021/12/14 08:57:10;;;;;;;2.10;1.97;;;;;;;6.84;100.00;101723.56;5070958;28;20780;-74
2021/12/14 08:59:39;;;;;;;5.63;5.10;;;;;;;6.84;100.00;101731.72;5073305;28;20186;-74
2021/12/14 09:02:07;;;;;;;7.33;6.60;;;;;;;6.86;100.00;101735.81;5073191;28;20189;-74
2021/12/14 09:04:38;;;;;;;7.27;6.57;;;;;;;6.87;100.00;101736.63;5073012;28;20179;-74
2021/12/14 09:07:09;;;;;;;10.73;5.93;;;;;;;6.89;100.00;101737.19;5072817;28;20186;-75
2021/12/14 09:09:35;;;;;;;6.77;4.90;;;;;;;6.91;100.00;101735.03;5073018;28;20305;-75
2021/12/14 09:12:08;;;;;;;7.20;6.60;;;;;;;6.93;100.00;101732.88;5073103;28;20171;-75
2021/12/14 09:14:34;;;;;;;4.57;4.17;;;;;;;6.96;100.00;101735.13;5073048;28;20672;-74
2021/12/14 09:17:03;;;;;;;3.00;2.80;;;;;;;6.97;100.00;101734.03;5072773;28;20650;-75
2021/12/14 09:19:38;;;;;;;9.23;7.23;;;;;;;6.99;100.00;101737.31;5072935;28;20235;-75
2021/12/14 09:22:14;;;;;;;8.13;7.00;;;;;;;7.01;100.00;101743.31;5072858;28;20613;-75
2021/12/14 09:24:41;;;;;;;7.07;6.30;;;;;;;7.03;100.00;101743.06;5072935;28;20216;-74
2021/12/14 09:27:11;;;;;;;3.90;3.03;;;;;;;7.04;100.00;101742.78;5072773;28;20194;-75
2021/12/14 09:29:37;;;;;;;8.33;7.50;;;;;;;7.05;100.00;101735.47;5072382;28;20202;-74
2021/12/14 09:32:07;;;;;;;6.97;6.27;;;;;;;7.05;100.00;101741.72;5072610;28;20201;-73
2021/12/14 09:34:36;;;;;;;8.43;7.07;;;;;;;7.07;100.00;101750.44;5072342;28;20198;-73
2021/12/14 09:37:04;;;;;;;4.83;4.43;;;;;;;7.07;100.00;101752.31;5072277;28;20182;-74
2021/12/14 09:39:36;;;;;;;4.37;4.07;;;;;;;7.08;100.00;101740.38;5072506;28;20223;-74
2021/12/14 09:42:06;;;;;;;5.10;4.67;;;;;;;7.11;100.00;101745.31;5071959;28;20178;-74
2021/12/14 09:44:33;;;;;;;6.77;6.17;;;;;;;7.14;100.00;101742.09;5071894;28;20209;-74
2021/12/14 09:47:06;;;;;;;7.73;6.17;;;;;;;7.15;100.00;101721.97;5071184;28;20705;-73
2021/12/14 09:49:32;;;;;;;10.33;8.90;;;;;;;7.19;100.00;101731.25;5069986;28;20220;-74
2021/12/14 09:52:04;;;;;;;10.30;9.30;;;;;;;7.24;100.00;101735.94;5069897;28;20538;-73
2021/12/14 09:54:31;;;;;;;4.83;4.33;;;;;;;7.24;100.00;101723.16;5071866;28;20278;-73
2021/12/14 09:57:02;;;;;;;4.03;3.73;;;;;;;7.27;100.00;101728.09;5071707;28;20181;-74
2021/12/14 09:59:27;;;;;;;2.90;2.23;;;;;;;7.29;100.00;101720.50;5069226;28;20548;-74
2021/12/14 10:01:58;;;;;;;4.10;3.80;;;;;;;7.32;100.00;101724.59;5071878;28;20365;-74
2021/12/14 10:04:30;;;;;;;6.50;5.90;;;;;;;7.34;100.00;101730.59;5071747;28;20175;-74
2021/12/14 10:06:58;;;;;;;13.67;11.17;;;;;;;7.38;100.00;101720.84;5068144;28;20190;-73
2021/12/14 10:09:27;;;;;;;2.77;2.57;;;;;;;7.42;100.00;101725.50;5069500;28;20309;-74
2021/12/14 10:12:16;;;;;;;9.17;8.27;;;;;;;7.42;100.00;101717.34;5071123;28;20696;-74
2021/12/14 10:14:42;;;;;;;4.27;3.87;;;;;;;7.44;100.00;101712.47;5069857;28;20170;-74
2021/12/14 10:17:12;;;;;;;5.47;4.97;;;;;;;7.45;100.00;101721.44;5071824;28;20174;-74
2021/12/14 10:19:39;;;;;;;10.77;5.97;;;;;;;7.51;100.00;101722.28;5071554;28;20166;-74
2021/12/14 10:22:13;;;;;;;8.40;7.60;;;;;;;7.59;100.00;101713.66;5071525;28;20699;-74
2021/12/14 10:24:39;;;;;;;12.37;11.07;;;;;;;7.61;100.00;101706.06;5071369;28;20166;-74
2021/12/14 10:27:12;;;;;;;11.30;10.03;;;;;;;7.67;100.00;101711.31;5071150;28;20179;-74
2021/12/14 10:29:38;;;;;;;12.80;11.07;;;;;;;7.67;100.00;101699.59;5069870;28;20210;-74
2021/12/14 10:32:09;;;;;;;9.60;8.03;;;;;;;7.65;100.00;101705.28;5070961;28;20186;-74
2021/12/14 10:34:39;;;;;;;10.87;9.73;;;;;;;7.68;100.00;101701.25;5070785;28;20653;-74
2021/12/14 10:37:16;;;;;;;4.93;3.27;;;;;;;7.69;100.00;101713.75;5070972;28;20685;-73
2021/12/14 10:45:07;;;;;;;6.17;5.73;;;;;;;7.64;100.00;101706.34;5066642;28;20174;-74
2021/12/14 10:47:33;;;;;;;8.87;7.70;;;;;;;7.67;100.00;101711.31;5071262;28;20703;-73
2021/12/14 10:50:03;;;;;;;6.97;6.23;;;;;;;7.73;100.00;101704.81;5078650;28;20616;-73
2021/12/14 10:52:31;;;;;;;2.67;2.47;;;;;;;7.69;100.00;101709.13;5079666;28;20227;-74
2021/12/14 10:55:03;;;;;;;2.90;2.13;;;;;;;7.72;100.00;101714.03;5071291;28;20179;-73
2021/12/14 10:57:31;;;;;;;12.00;9.20;;;;;;;7.75;100.00;101718.97;5069877;28;20177;-74
2021/12/14 10:59:58;;;;;;;2.67;2.57;;;;;;;7.75;100.00;101713.53;5071198;28;20175;-74
2021/12/14 11:02:26;;;;;;;10.60;6.27;;;;;;;7.74;100.00;101701.00;5071015;28;20173;-73
2021/12/14 11:04:57;;;;;;;3.57;2.93;;;;;;;7.70;100.00;101710.78;5071341;28;20178;-74
2021/12/14 11:07:28;;;;;;;9.87;8.93;;;;;;;7.67;100.00;101721.38;5071031;28;20618;-73
2021/12/14 11:10:06;;;;;;;3.83;3.23;;;;;;;7.67;100.00;101707.75;5070896;28;20209;-74
2021/12/14 11:12:36;;;;;;;3.83;3.50;;;;;;;7.66;100.00;101709.63;5071457;28;20256;-73
2021/12/14 11:15:10;;;;;;;3.47;3.17;;;;;;;7.67;100.00;101708.59;5070740;28;20202;-76
2021/12/14 11:20:27;;;;;;;6.27;3.30;;;;;;;7.74;100.00;101695.56;5070184;28;20182;-74
2021/12/14 11:22:56;;;;;;;5.63;5.17;;;;;;;7.76;100.00;101698.03;5070889;28;20406;-73
2021/12/14 11:25:25;;;;;;;3.37;3.07;;;;;;;7.78;100.00;101692.31;5070450;28;20206;-73
2021/12/14 11:28:01;;;;;;;9.00;8.10;;;;;;;7.81;100.00;101697.22;5070553;28;20198;-74
2021/12/14 11:30:39;;;;;;;11.47;10.27;;;;;;;7.82;100.00;101693.44;5070818;28;20274;-74
2021/12/14 11:33:07;;;;;;;6.37;5.80;;;;;;;7.84;100.00;101702.97;5070333;28;20178;-73
2021/12/14 11:35:40;;;;;;;4.53;4.13;;;;;;;7.86;100.00;101695.38;5066723;28;20195;-73
2021/12/14 11:38:12;;;;;;;8.23;7.23;;;;;;;7.87;100.00;101704.34;5065948;28;20539;-73
2021/12/14 11:40:40;;;;;;;4.53;3.43;;;;;;;7.90;100.00;101703.81;5069271;28;20189;-73
2021/12/14 11:43:15;;;;;;;9.40;8.40;;;;;;;7.91;100.00;101705.47;5070971;28;20182;-74
2021/12/14 11:45:45;;;;;;;3.47;3.17;;;;;;;7.92;100.00;101704.38;5070203;28;20185;-73
2021/12/14 11:48:13;;;;;;;8.63;7.83;;;;;;;7.90;100.00;101704.63;5069175;28;20201;-74
2021/12/14 11:50:47;;;;;;;8.50;7.60;;;;;;;7.93;100.00;101708.72;5070739;28;20213;-75
2021/12/14 11:53:17;;;;;;;5.80;5.27;;;;;;;7.94;100.00;101702.22;5070147;28;20797;-74
2021/12/14 11:55:51;;;;;;;11.50;7.70;;;;;;;7.94;100.00;101700.31;5070259;28;20219;-75
2021/12/14 11:58:48;;;;;;;13.67;9.93;;;;;;;7.95;100.00;101706.56;5070250;28;20545;-75
2021/12/14 12:01:39;;;;;;;8.93;7.80;;;;;;;7.98;100.00;101715.03;5070438;28;20178;-74
2021/12/14 12:04:29;;;;;;;13.17;8.23;;;;;;;7.97;100.00;101704.44;5070399;28;20173;-75
2021/12/14 12:09:35;;;;;;;9.00;7.20;;;;;;;7.99;100.00;101704.97;5069820;28;20246;-77
2021/12/14 12:12:03;;;;;;;9.17;8.33;;;;;;;8.01;100.00;101700.09;5070143;28;20168;-76
2021/12/14 12:14:32;;;;;;;8.40;7.47;;;;;;;8.01;100.00;101713.69;5069996;28;20170;-76
2021/12/14 12:17:14;;;;;;;8.90;7.97;;;;;;;8.03;100.00;101711.53;5070016;28;20265;-76
2021/12/14 12:19:48;;;;;;;7.17;6.47;;;;;;;8.04;100.00;101707.72;5070257;28;20527;-76
2021/12/14 12:22:15;;;;;;;12.13;10.17;;;;;;;8.02;100.00;101702.53;5070150;28;20174;-77
2021/12/14 12:24:49;;;;;;;10.27;9.07;;;;;;;8.04;100.00;101710.44;5069924;28;20177;-76